Trumbull, Connecticut
Current Conditions -  °F | °C
As of 3:52 PM on Monday 22 Dec 2014 (Local Time) from KBDR Reporting Station
Overcast Overcast  
Wind Chill: 37°   Ceiling: 4700
Heat Index: 44°   Visibility: 10mi
Dew Point: 40°   Wind: 14mph
Humidity: 85%   Direction: 100°E
Pressure: 30.25"   Gusts: NA
Location:  41.23°N, 73.22°W
Report Text: KBDR 222052Z 10012KT 10SM FEW012 FEW039 OVC047 07/04 A3025 RMK AO2 SLP243 T00670044 56007
Loading
Personal Weather Stations






























Interactive Weather Map New forecast layout! Learn more

10-Day Weather Forecast

Advertisements
Track Severe Weather on mobile